createdAt,value
2018-12-31T00:01:09.539Z,7.60
2018-12-31T00:03:36.782Z,7.60
2018-12-31T00:06:05.629Z,7.70
2018-12-31T00:08:32.240Z,7.80
2018-12-31T00:10:58.790Z,7.70
2018-12-31T00:13:29.175Z,7.80
2018-12-31T00:15:55.743Z,7.80
2018-12-31T00:18:22.334Z,7.60
2018-12-31T00:20:48.863Z,7.20
2018-12-31T00:23:17.364Z,7.30
2018-12-31T00:25:44.038Z,7.40
2018-12-31T00:28:13.122Z,7.40
2018-12-31T00:30:39.697Z,7.20
2018-12-31T00:33:08.399Z,7.30
2018-12-31T00:35:37.533Z,7.20
2018-12-31T00:38:04.224Z,7.20
2018-12-31T00:40:30.772Z,7.00
2018-12-31T00:42:59.166Z,6.90
2018-12-31T00:45:25.894Z,6.70
2018-12-31T00:47:54.857Z,6.60
2018-12-31T00:50:21.597Z,6.80
2018-12-31T00:52:49.057Z,6.90
2018-12-31T00:55:15.853Z,6.80
2018-12-31T00:57:42.620Z,6.60
2018-12-31T01:00:12.437Z,6.30
2018-12-31T01:02:40.105Z,6.00
2018-12-31T01:05:06.788Z,6.10
2018-12-31T01:07:35.861Z,6.10
2018-12-31T01:10:02.470Z,6.10
2018-12-31T01:12:29.166Z,6.20
2018-12-31T01:14:58.376Z,6.20
2018-12-31T01:17:24.978Z,5.70
2018-12-31T01:19:52.035Z,5.90
2018-12-31T01:22:18.676Z,5.90
2018-12-31T01:24:46.183Z,5.80
2018-12-31T01:27:15.237Z,5.20
2018-12-31T01:29:41.798Z,5.10
2018-12-31T01:34:44.036Z,5.60
2018-12-31T01:37:10.758Z,5.70
2018-12-31T01:39:37.433Z,5.50
2018-12-31T01:42:03.996Z,5.20
2018-12-31T01:44:30.658Z,4.80
2018-12-31T01:46:57.339Z,5.10
2018-12-31T01:49:23.899Z,4.80
2018-12-31T01:51:50.507Z,4.80
2018-12-31T01:54:17.152Z,4.30
2018-12-31T01:56:43.902Z,4.30
2018-12-31T01:59:10.640Z,4.30
2018-12-31T02:01:37.153Z,4.30
2018-12-31T02:04:03.777Z,4.70
2018-12-31T02:06:30.470Z,4.40
2018-12-31T02:08:56.975Z,4.50
2018-12-31T02:11:26.916Z,4.40
2018-12-31T02:13:53.682Z,4.60
2018-12-31T02:16:20.557Z,4.80
2018-12-31T02:18:47.254Z,4.60
2018-12-31T02:21:19.896Z,4.80
2018-12-31T02:23:46.519Z,4.90
2018-12-31T02:26:13.749Z,4.70
2018-12-31T02:28:40.997Z,4.60
2018-12-31T02:31:07.878Z,4.60
2018-12-31T02:33:34.449Z,4.50
2018-12-31T02:36:01.094Z,4.20
2018-12-31T02:38:27.709Z,4.10
2018-12-31T02:40:54.358Z,4.30
2018-12-31T02:43:21.008Z,4.60
2018-12-31T02:45:47.604Z,4.70
2018-12-31T02:48:14.138Z,4.50
2018-12-31T02:50:41.265Z,4.40
2018-12-31T02:53:07.900Z,4.60
2018-12-31T02:55:34.488Z,4.60
2018-12-31T02:58:01.112Z,4.40
2018-12-31T03:00:27.642Z,4.50
2018-12-31T03:02:54.272Z,4.50
2018-12-31T03:05:20.916Z,4.60
2018-12-31T03:07:47.431Z,4.40
2018-12-31T03:10:14.056Z,4.60
2018-12-31T03:12:41.741Z,4.20
2018-12-31T03:15:08.291Z,4.30
2018-12-31T03:17:34.826Z,4.40
2018-12-31T03:20:01.360Z,4.10
2018-12-31T03:22:27.968Z,4.10
2018-12-31T03:24:54.600Z,4.20
2018-12-31T03:27:21.187Z,4.20
2018-12-31T03:29:47.743Z,4.10
2018-12-31T03:32:18.563Z,4.00
2018-12-31T03:34:45.143Z,4.30
2018-12-31T03:37:12.242Z,4.10
2018-12-31T03:39:38.786Z,4.30
2018-12-31T03:42:08.399Z,3.90
2018-12-31T03:44:35.112Z,3.20
2018-12-31T03:47:01.635Z,2.90
2018-12-31T03:49:28.231Z,3.60
2018-12-31T03:51:57.558Z,3.90
2018-12-31T03:54:24.096Z,4.20
2018-12-31T03:56:50.725Z,4.20
2018-12-31T03:59:17.295Z,4.10
2018-12-31T04:01:43.877Z,4.10
2018-12-31T04:04:10.437Z,4.10
2018-12-31T04:06:37.873Z,4.10
2018-12-31T04:09:04.435Z,4.30
2018-12-31T04:11:31.093Z,4.10
2018-12-31T04:13:57.628Z,3.80
2018-12-31T04:16:24.227Z,3.40
2018-12-31T04:18:50.817Z,3.90
2018-12-31T04:23:47.983Z,3.90
2018-12-31T04:26:14.567Z,4.00
2018-12-31T04:28:42.171Z,3.80
2018-12-31T04:31:08.670Z,3.60
2018-12-31T04:33:35.355Z,3.80
2018-12-31T04:36:01.970Z,3.80
2018-12-31T04:38:28.699Z,3.90
2018-12-31T04:40:55.335Z,4.00
2018-12-31T04:43:21.892Z,4.10
2018-12-31T04:45:48.457Z,4.00
2018-12-31T04:48:15.162Z,4.10
2018-12-31T04:50:42.349Z,3.90
2018-12-31T04:53:09.222Z,4.00
2018-12-31T04:55:44.047Z,4.30
2018-12-31T04:58:04.681Z,4.50
2018-12-31T05:00:31.225Z,4.60
2018-12-31T05:02:58.220Z,4.70
2018-12-31T05:05:24.746Z,4.30
2018-12-31T05:07:51.283Z,4.50
2018-12-31T05:10:17.857Z,4.30
2018-12-31T05:12:48.312Z,4.30
2018-12-31T05:15:14.851Z,4.10
2018-12-31T05:17:41.556Z,3.60
2018-12-31T05:20:08.090Z,3.80
2018-12-31T05:22:38.370Z,3.80
2018-12-31T05:25:05.200Z,4.00
2018-12-31T05:27:31.915Z,4.10
2018-12-31T05:29:58.536Z,3.80
2018-12-31T05:32:25.196Z,3.50
2018-12-31T05:34:52.180Z,3.70
2018-12-31T05:37:19.752Z,3.70
2018-12-31T05:39:46.365Z,3.70
2018-12-31T05:42:13.012Z,3.70
2018-12-31T05:44:39.584Z,3.40
2018-12-31T05:47:07.019Z,3.40
2018-12-31T05:49:33.839Z,3.70
2018-12-31T05:52:00.810Z,3.50
2018-12-31T05:54:27.515Z,3.90
2018-12-31T05:56:54.081Z,3.90
2018-12-31T05:59:20.696Z,3.80
2018-12-31T06:01:47.353Z,3.40
2018-12-31T06:04:14.202Z,3.60
2018-12-31T06:06:40.741Z,3.90
2018-12-31T06:09:07.324Z,4.00
2018-12-31T06:11:33.919Z,4.10
2018-12-31T06:14:01.239Z,3.90
2018-12-31T06:16:28.622Z,4.20
2018-12-31T06:18:55.973Z,4.30
2018-12-31T06:21:23.418Z,4.30
2018-12-31T06:23:50.029Z,3.60
2018-12-31T06:26:16.599Z,3.70
2018-12-31T06:28:43.523Z,3.90
2018-12-31T06:31:10.138Z,4.00
2018-12-31T06:33:38.612Z,3.90
2018-12-31T06:36:05.144Z,4.10
2018-12-31T06:38:31.752Z,3.70
2018-12-31T06:40:58.317Z,3.10
2018-12-31T06:43:27.997Z,3.00
2018-12-31T06:45:54.854Z,3.30
2018-12-31T06:48:21.442Z,3.00
2018-12-31T06:50:50.674Z,3.00
2018-12-31T06:53:17.233Z,3.00
2018-12-31T06:55:43.903Z,3.20
2018-12-31T06:58:10.547Z,3.20
2018-12-31T07:00:37.147Z,3.40
2018-12-31T07:03:04.694Z,3.70
2018-12-31T07:05:31.455Z,3.50
2018-12-31T07:07:58.054Z,3.70
2018-12-31T07:10:24.632Z,3.50
2018-12-31T07:12:51.692Z,4.10
2018-12-31T07:15:18.278Z,4.20
2018-12-31T07:17:45.035Z,3.90
2018-12-31T07:20:12.008Z,3.40
2018-12-31T07:22:38.639Z,3.80
2018-12-31T07:25:05.178Z,4.00
2018-12-31T07:27:31.944Z,3.50
2018-12-31T07:32:45.325Z,4.20
2018-12-31T07:35:11.919Z,4.20
2018-12-31T07:37:38.448Z,4.30
2018-12-31T07:40:05.031Z,4.20
2018-12-31T07:42:31.619Z,4.60
2018-12-31T07:45:01.997Z,4.50
2018-12-31T07:47:28.598Z,3.90
2018-12-31T07:49:55.236Z,4.10
2018-12-31T07:52:21.802Z,3.70
2018-12-31T07:54:48.803Z,4.00
2018-12-31T07:57:15.429Z,4.10
2018-12-31T07:59:42.134Z,4.00
2018-12-31T08:02:09.447Z,4.00
2018-12-31T08:04:36.088Z,4.20
2018-12-31T08:07:02.601Z,4.70
2018-12-31T08:09:29.181Z,5.00
2018-12-31T08:11:55.735Z,4.90
2018-12-31T08:14:23.759Z,5.20
2018-12-31T08:16:50.390Z,5.20
2018-12-31T08:19:17.679Z,5.30
2018-12-31T08:21:44.555Z,5.20
2018-12-31T08:24:13.739Z,5.20
2018-12-31T08:26:41.349Z,5.40
2018-12-31T08:29:07.903Z,5.50
2018-12-31T08:31:34.598Z,5.40
2018-12-31T08:34:01.639Z,5.40
2018-12-31T08:36:28.153Z,5.00
2018-12-31T08:38:54.672Z,4.90
2018-12-31T08:41:21.328Z,5.30
2018-12-31T08:43:48.057Z,5.20
2018-12-31T08:46:14.751Z,5.00
2018-12-31T08:48:41.349Z,4.90
2018-12-31T08:51:08.044Z,5.60
2018-12-31T08:53:34.579Z,6.00
2018-12-31T08:56:01.164Z,6.20
2018-12-31T08:58:27.762Z,6.30
2018-12-31T09:00:54.304Z,5.90
2018-12-31T09:03:20.921Z,6.30
2018-12-31T09:05:47.793Z,6.60
2018-12-31T09:08:14.864Z,6.70
2018-12-31T09:10:41.591Z,6.20
2018-12-31T09:13:08.178Z,6.60
2018-12-31T09:15:34.769Z,6.70
2018-12-31T09:18:01.503Z,6.50
2018-12-31T09:20:28.559Z,6.50
2018-12-31T09:22:55.189Z,6.50
2018-12-31T09:25:24.484Z,6.80
2018-12-31T09:27:51.060Z,6.90
2018-12-31T09:30:20.357Z,7.10
2018-12-31T09:32:46.928Z,6.90
2018-12-31T09:35:15.297Z,6.80
2018-12-31T09:37:41.841Z,6.70
2018-12-31T09:40:08.390Z,6.70
2018-12-31T09:42:35.003Z,7.00
2018-12-31T09:45:03.549Z,7.00
2018-12-31T09:47:30.255Z,7.30
2018-12-31T09:49:56.797Z,7.30
2018-12-31T09:52:23.408Z,7.40
2018-12-31T09:54:49.950Z,7.60
2018-12-31T09:57:16.536Z,7.70
2018-12-31T09:59:43.072Z,8.10
2018-12-31T10:02:09.713Z,7.90
2018-12-31T10:04:36.273Z,7.90
2018-12-31T10:07:02.820Z,8.50
2018-12-31T10:09:29.377Z,8.90
2018-12-31T10:11:56.291Z,9.10
2018-12-31T10:14:22.843Z,9.40
2018-12-31T10:16:49.437Z,9.50
2018-12-31T10:19:15.991Z,9.60
2018-12-31T10:21:42.642Z,9.20
2018-12-31T10:24:09.217Z,9.60
2018-12-31T10:26:35.758Z,9.70
2018-12-31T10:29:02.271Z,9.50
2018-12-31T10:31:28.813Z,9.50
2018-12-31T10:33:55.390Z,9.30
2018-12-31T10:36:21.888Z,9.50
2018-12-31T10:38:51.211Z,10.20
2018-12-31T10:41:16.704Z,10.10
2018-12-31T10:43:43.286Z,10.60
2018-12-31T10:46:13.392Z,10.00
2018-12-31T10:48:40.570Z,9.80
2018-12-31T10:51:07.128Z,9.70
2018-12-31T10:53:33.653Z,9.70
2018-12-31T10:56:02.197Z,10.20
2018-12-31T10:58:30.360Z,10.30
2018-12-31T11:00:56.953Z,10.60
2018-12-31T11:03:23.482Z,10.90
2018-12-31T11:05:57.069Z,10.80
2018-12-31T11:08:24.864Z,10.80
2018-12-31T11:10:51.384Z,10.90
2018-12-31T11:13:17.884Z,11.00
2018-12-31T11:15:48.234Z,10.80
2018-12-31T11:18:15.978Z,10.70
2018-12-31T11:20:42.524Z,10.50
2018-12-31T11:23:09.072Z,11.00
2018-12-31T11:25:35.655Z,11.30
2018-12-31T11:28:02.183Z,11.00
2018-12-31T11:30:28.795Z,11.10
2018-12-31T11:32:55.308Z,11.10
2018-12-31T11:35:21.844Z,10.20
2018-12-31T11:37:48.415Z,10.10
2018-12-31T11:40:14.966Z,10.30
2018-12-31T11:42:41.586Z,10.80
2018-12-31T11:45:08.417Z,10.50
2018-12-31T11:47:35.035Z,10.40
2018-12-31T11:50:01.605Z,10.80
2018-12-31T11:52:28.132Z,11.20
2018-12-31T11:54:54.705Z,11.30
2018-12-31T11:57:21.276Z,10.90
2018-12-31T11:59:47.816Z,11.60
2018-12-31T12:02:14.417Z,11.90
2018-12-31T12:04:40.928Z,11.90
2018-12-31T12:07:07.553Z,11.50
2018-12-31T12:09:34.059Z,12.00
2018-12-31T12:12:00.636Z,11.90
2018-12-31T12:14:28.542Z,11.60
2018-12-31T12:16:55.047Z,11.30
2018-12-31T12:19:22.087Z,11.40
2018-12-31T12:21:48.650Z,11.80
2018-12-31T12:24:15.165Z,12.20
2018-12-31T12:26:44.746Z,12.10
2018-12-31T12:29:11.281Z,12.10
2018-12-31T12:31:37.818Z,11.50
2018-12-31T12:34:04.372Z,11.60
2018-12-31T12:36:34.027Z,11.70
2018-12-31T12:39:00.573Z,12.00
2018-12-31T12:41:27.105Z,12.30
2018-12-31T12:43:53.995Z,11.80
2018-12-31T12:46:20.547Z,11.50
2018-12-31T12:48:47.135Z,12.00
2018-12-31T12:51:13.692Z,12.20
2018-12-31T12:53:40.216Z,12.20
2018-12-31T12:56:06.804Z,12.20
2018-12-31T12:58:33.689Z,12.40
2018-12-31T13:01:00.282Z,12.30
2018-12-31T13:03:26.819Z,12.50
2018-12-31T13:05:53.376Z,12.10
2018-12-31T13:08:19.916Z,12.00
2018-12-31T13:10:47.149Z,11.80
2018-12-31T13:13:14.201Z,11.30
2018-12-31T13:15:41.084Z,11.00
2018-12-31T13:18:07.617Z,11.30
2018-12-31T13:20:34.503Z,11.40
2018-12-31T13:23:01.069Z,11.10
2018-12-31T13:25:27.608Z,11.20
2018-12-31T13:27:54.455Z,11.30
2018-12-31T13:30:21.059Z,10.90
2018-12-31T13:32:47.628Z,11.10
2018-12-31T13:35:14.142Z,11.20
2018-12-31T13:37:45.886Z,11.40
2018-12-31T13:40:12.557Z,11.10
2018-12-31T13:42:39.084Z,11.20
2018-12-31T13:45:05.613Z,11.30
2018-12-31T13:47:42.635Z,11.30
2018-12-31T13:50:09.181Z,11.40
2018-12-31T13:52:36.079Z,10.90
2018-12-31T13:55:02.628Z,11.00
2018-12-31T13:57:32.987Z,10.80
2018-12-31T13:59:59.493Z,10.70
2018-12-31T14:02:26.014Z,11.00
2018-12-31T14:04:52.625Z,11.20
2018-12-31T14:07:21.834Z,11.30
2018-12-31T14:09:48.347Z,11.20
2018-12-31T14:12:14.904Z,11.10
2018-12-31T14:14:41.434Z,11.10
2018-12-31T14:17:08.019Z,11.30
2018-12-31T14:19:34.645Z,11.10
2018-12-31T14:22:01.702Z,11.00
2018-12-31T14:24:28.212Z,11.30
2018-12-31T14:27:00.493Z,11.30
2018-12-31T14:29:23.076Z,11.40
2018-12-31T14:31:49.591Z,11.30
2018-12-31T14:34:16.130Z,11.00
2018-12-31T14:36:42.950Z,10.70
2018-12-31T14:39:14.066Z,10.10
2018-12-31T14:41:40.556Z,10.10
2018-12-31T14:44:07.117Z,10.10
2018-12-31T14:46:33.647Z,10.00
2018-12-31T14:49:00.188Z,9.50
2018-12-31T14:51:26.772Z,9.80
2018-12-31T14:53:53.287Z,9.60
2018-12-31T14:56:19.818Z,9.30
2018-12-31T14:58:46.336Z,9.50
2018-12-31T15:01:18.047Z,9.60
2018-12-31T15:03:50.072Z,9.70
2018-12-31T15:06:11.430Z,9.50
2018-12-31T15:08:38.114Z,9.50
2018-12-31T15:11:05.052Z,9.80
2018-12-31T15:13:31.595Z,9.80
2018-12-31T15:15:58.146Z,9.50
2018-12-31T15:18:25.189Z,9.60
2018-12-31T15:20:51.657Z,9.30
2018-12-31T15:23:18.620Z,9.20
2018-12-31T15:25:45.203Z,9.40
2018-12-31T15:28:12.370Z,9.50
2018-12-31T15:30:38.871Z,9.60
2018-12-31T15:33:05.421Z,9.50
2018-12-31T15:35:31.948Z,9.80
2018-12-31T15:37:59.777Z,10.00
2018-12-31T15:40:26.885Z,10.00
2018-12-31T15:42:53.411Z,10.00
2018-12-31T15:45:19.949Z,9.60
2018-12-31T15:47:46.550Z,9.40
2018-12-31T15:50:13.082Z,9.60
2018-12-31T15:52:39.647Z,9.70
2018-12-31T15:55:06.179Z,9.50
2018-12-31T15:57:32.686Z,9.60
2018-12-31T15:59:59.236Z,9.20
2018-12-31T16:02:26.008Z,9.40
2018-12-31T16:04:52.515Z,9.30
2018-12-31T16:07:19.212Z,9.20
2018-12-31T16:09:45.754Z,9.30
2018-12-31T16:12:12.288Z,9.20
2018-12-31T16:14:38.806Z,9.20
2018-12-31T16:17:05.507Z,9.00
2018-12-31T16:19:32.030Z,9.00
2018-12-31T16:21:58.536Z,9.00
2018-12-31T16:24:25.111Z,8.90
2018-12-31T16:26:51.634Z,8.50
2018-12-31T16:29:19.234Z,8.20
2018-12-31T16:31:45.872Z,8.10
2018-12-31T16:34:12.531Z,8.00
2018-12-31T16:36:39.086Z,8.40
2018-12-31T16:39:05.583Z,8.60
2018-12-31T16:41:32.118Z,8.50
2018-12-31T16:43:58.649Z,8.60
2018-12-31T16:46:25.185Z,8.60
2018-12-31T16:48:54.993Z,8.20
2018-12-31T16:51:21.492Z,8.20
2018-12-31T16:53:48.033Z,8.30
2018-12-31T16:56:14.611Z,8.40
2018-12-31T16:58:52.009Z,8.20
2018-12-31T17:01:19.843Z,8.10
2018-12-31T17:03:46.365Z,8.20
2018-12-31T17:06:12.919Z,8.10
2018-12-31T17:08:39.494Z,7.80
2018-12-31T17:11:06.224Z,7.90
2018-12-31T17:13:35.214Z,7.60
2018-12-31T17:16:02.231Z,7.10
2018-12-31T17:18:28.760Z,7.30
2018-12-31T17:20:55.262Z,7.40
2018-12-31T17:23:21.874Z,7.50
2018-12-31T17:25:48.390Z,7.40
2018-12-31T17:28:15.050Z,7.70
2018-12-31T17:30:41.925Z,7.50
2018-12-31T17:33:08.450Z,7.70
2018-12-31T17:35:34.997Z,7.60
2018-12-31T17:38:01.571Z,7.60
2018-12-31T17:40:28.091Z,7.50
2018-12-31T17:42:54.660Z,7.50
2018-12-31T17:45:23.285Z,7.50
2018-12-31T17:47:49.896Z,7.40
2018-12-31T17:50:16.485Z,7.30
2018-12-31T17:52:42.993Z,7.30
2018-12-31T17:55:09.566Z,7.00
2018-12-31T17:57:36.115Z,7.20
2018-12-31T18:00:03.748Z,7.40
2018-12-31T18:02:32.555Z,7.40
2018-12-31T18:04:59.075Z,7.30
2018-12-31T18:07:29.897Z,7.40
2018-12-31T18:10:02.697Z,7.40
2018-12-31T18:12:29.352Z,7.40
2018-12-31T18:14:55.891Z,7.40
2018-12-31T18:17:22.457Z,7.40
2018-12-31T18:19:50.676Z,7.30
2018-12-31T18:22:17.461Z,7.30
2018-12-31T18:24:43.983Z,7.00
2018-12-31T18:27:12.551Z,6.80
2018-12-31T18:29:40.412Z,6.80
2018-12-31T18:32:06.934Z,6.90
2018-12-31T18:34:33.434Z,7.00
2018-12-31T18:37:00.051Z,7.20
2018-12-31T18:39:26.584Z,7.10
2018-12-31T18:41:53.079Z,7.00
2018-12-31T18:44:20.510Z,7.00
2018-12-31T18:46:47.316Z,7.10
2018-12-31T18:49:13.976Z,6.90
2018-12-31T18:51:40.534Z,6.90
2018-12-31T18:54:07.020Z,6.90
2018-12-31T18:56:33.545Z,6.70
2018-12-31T18:59:00.084Z,7.10
2018-12-31T19:01:26.644Z,7.30
2018-12-31T19:03:53.290Z,7.10
2018-12-31T19:06:20.887Z,6.90
2018-12-31T19:08:47.442Z,6.40
2018-12-31T19:11:13.962Z,6.40
2018-12-31T19:13:41.297Z,6.80
2018-12-31T19:16:07.802Z,6.80
2018-12-31T19:18:34.384Z,7.10
2018-12-31T19:21:00.998Z,7.10
2018-12-31T19:23:27.520Z,7.10
2018-12-31T19:25:54.039Z,6.70
2018-12-31T19:28:21.054Z,6.50
2018-12-31T19:30:51.383Z,6.50
2018-12-31T19:33:17.987Z,6.70
2018-12-31T19:35:44.602Z,6.80
2018-12-31T19:38:11.388Z,6.80
2018-12-31T19:40:38.695Z,7.00
2018-12-31T19:43:09.200Z,7.10
2018-12-31T19:45:35.730Z,7.10
2018-12-31T19:48:02.264Z,7.00
2018-12-31T19:50:31.504Z,7.10
2018-12-31T19:52:58.056Z,7.20
2018-12-31T19:55:24.581Z,7.20
2018-12-31T19:57:51.401Z,7.20
2018-12-31T20:00:20.603Z,6.80
2018-12-31T20:02:47.115Z,6.90
2018-12-31T20:05:13.672Z,7.10
2018-12-31T20:07:40.219Z,7.10
2018-12-31T20:10:08.497Z,7.10
2018-12-31T20:12:35.064Z,7.00
2018-12-31T20:15:01.699Z,6.90
2018-12-31T20:17:28.211Z,6.90
2018-12-31T20:19:54.946Z,7.10
2018-12-31T20:22:21.538Z,7.30
2018-12-31T20:24:48.168Z,7.40
2018-12-31T20:27:15.064Z,7.30
2018-12-31T20:29:41.625Z,7.10
2018-12-31T20:32:10.680Z,7.00
2018-12-31T20:34:37.223Z,7.00
2018-12-31T20:37:03.874Z,7.00
2018-12-31T20:39:30.439Z,7.10
2018-12-31T20:41:59.216Z,7.10
2018-12-31T20:44:25.910Z,6.90
2018-12-31T20:46:52.420Z,6.90
2018-12-31T20:49:19.044Z,6.90
2018-12-31T20:51:45.642Z,6.70
2018-12-31T20:54:12.202Z,6.80
2018-12-31T20:56:39.110Z,6.90
2018-12-31T20:59:05.925Z,6.90
2018-12-31T21:01:34.680Z,7.00
2018-12-31T21:04:01.505Z,6.90
2018-12-31T21:06:28.044Z,6.80
2018-12-31T21:08:54.625Z,6.70
2018-12-31T21:11:21.850Z,6.70
2018-12-31T21:13:48.445Z,6.80
2018-12-31T21:16:14.997Z,6.80
2018-12-31T21:18:41.586Z,6.90
2018-12-31T21:21:11.114Z,6.90
2018-12-31T21:23:37.657Z,6.90
2018-12-31T21:26:04.483Z,7.10
2018-12-31T21:28:31.123Z,7.20
2018-12-31T21:30:57.649Z,7.20
2018-12-31T21:33:24.551Z,7.40
2018-12-31T21:35:54.518Z,7.30
2018-12-31T21:38:23.740Z,7.20
2018-12-31T21:40:50.875Z,6.90
2018-12-31T21:43:17.381Z,7.00
2018-12-31T21:45:43.890Z,7.20
2018-12-31T21:48:10.569Z,7.20
2018-12-31T21:50:37.102Z,7.20
2018-12-31T21:53:03.665Z,6.90
2018-12-31T21:55:30.212Z,7.10
2018-12-31T21:57:56.772Z,7.10
2018-12-31T22:00:23.560Z,7.00
2018-12-31T22:02:56.854Z,7.00
2018-12-31T22:05:18.519Z,7.10
2018-12-31T22:07:45.043Z,7.10
2018-12-31T22:10:11.607Z,7.20
2018-12-31T22:12:38.420Z,7.10
2018-12-31T22:15:05.622Z,7.00
2018-12-31T22:17:32.202Z,7.00
2018-12-31T22:19:58.787Z,7.00
2018-12-31T22:22:25.506Z,7.10
2018-12-31T22:24:52.939Z,7.10
2018-12-31T22:27:19.463Z,7.00
2018-12-31T22:29:46.345Z,7.00
2018-12-31T22:32:12.958Z,7.00
2018-12-31T22:34:39.510Z,6.90
2018-12-31T22:37:06.000Z,6.90
2018-12-31T22:39:32.985Z,7.00
2018-12-31T22:42:01.259Z,7.10
2018-12-31T22:44:27.796Z,7.10
2018-12-31T22:46:54.372Z,7.20
2018-12-31T22:49:20.990Z,7.10
2018-12-31T22:51:50.691Z,7.10
2018-12-31T22:54:17.268Z,7.10
2018-12-31T22:56:45.043Z,7.10
2018-12-31T22:59:12.206Z,7.10
2018-12-31T23:01:38.964Z,6.90
2018-12-31T23:04:05.561Z,6.70
2018-12-31T23:06:32.141Z,6.70
2018-12-31T23:08:58.692Z,6.80
2018-12-31T23:11:25.226Z,6.80
2018-12-31T23:13:52.192Z,6.90
2018-12-31T23:16:18.885Z,6.90
2018-12-31T23:18:45.412Z,6.80
2018-12-31T23:21:11.969Z,6.70
2018-12-31T23:23:38.622Z,6.70
2018-12-31T23:26:05.234Z,6.70
2018-12-31T23:28:31.775Z,6.70
2018-12-31T23:30:58.319Z,6.70
2018-12-31T23:33:24.816Z,6.70
2018-12-31T23:35:51.345Z,6.70
2018-12-31T23:38:18.285Z,6.70
2018-12-31T23:40:44.924Z,6.70
2018-12-31T23:43:11.575Z,6.70
2018-12-31T23:45:38.550Z,6.70
2018-12-31T23:48:05.149Z,6.60
2018-12-31T23:50:31.767Z,6.60
2018-12-31T23:55:45.498Z,6.70
2018-12-31T23:58:12.058Z,6.80
